Orion Highway — 3ESA4 — position and weather

sailwx.info

Track history (hours):
 
Tides and Currents Weather Stations Pressure Air Temp Water Temp Dewpoint Dewpoint Depression Visibility Wind Speed Wind Dir Waves Ship Positions

Orion Highway

Last reported at 2018-Jun-25 07:58 UTC. Time now 2018-Jun-25 08:21 UTC.
Position N 36°45' W 009°11'.

Length 199 m; draft 8.3 m.

Type: Cargo ship. MMSI: 374678000.

Date/timePositionNaut miles runAvg speedWind from/ knotsBaromVisibWave heightAir tempDewpointWater temp
2018-Jun-25 07:58N 36°45' W 009°11'918.9
2018-Jun-25 07:30N 36°42' W 009°01'1019.2
2018-Jun-25 07:00N 36°39' W 008°49'1019.5
2018-Jun-25 06:30N 36°36' W 008°38'1019.5
2018-Jun-25 05:59N 36°33' W 008°26'919.2
2018-Jun-25 05:30N 36°30' W 008°15'1119.3
2018-Jun-25 04:56N 36°26' W 008°02'919.2
2018-Jun-25 04:28N 36°24' W 007°51'919.2
2018-Jun-25 04:00N 36°21' W 007°41'32117.8
2018-Jun-24 09:56N 37°12' W 001°05'919.6
2018-Jun-24 09:29N 37°18' W 000°57'1020.1
2018-Jun-24 09:00N 37°24' W 000°48'1020.0
2018-Jun-24 08:30N 37°31' W 000°38'1019.6
2018-Jun-24 08:00N 37°39' W 000°30'1019.8
2018-Jun-24 07:30N 37°47' W 000°23'1020.0
2018-Jun-24 07:00N 37°55' W 000°16'1020.0
2018-Jun-24 06:30N 38°04' W 000°09'1019.8
2018-Jun-24 05:59N 38°12' W 000°02'1019.7
2018-Jun-24 05:30N 38°20' E 000°04'1219.9
2018-Jun-24 04:54N 38°30' E 000°12'1219.9
2018-Jun-24 04:16N 38°41' E 000°21'819.7
2018-Jun-24 03:52N 38°48' E 000°26'14519.5
2018-Jun-23 20:26N 40°56' E 001°56'819.7
2018-Jun-23 20:00N 41°03' E 002°01'1019.4
2018-Jun-23 19:30N 41°11' E 002°07'714.7
2018-Jun-23 19:00N 41°18' E 002°10'2 3.9
2018-Jun-23 18:31N 41°20' E 002°09'0 0.2
2018-Jun-23 18:00N 41°20' E 002°09'0 0.0
2018-Jun-23 17:24N 41°20' E 002°09'0 0.0
2018-Jun-23 17:00N 41°20' E 002°09'0 0.0
2018-Jun-23 16:30N 41°20' E 002°09'0 0.0
2018-Jun-23 16:00N 41°20' E 002°09'0 0.0
2018-Jun-23 15:30N 41°20' E 002°09'0 0.0
2018-Jun-23 15:00N 41°20' E 002°09'0 0.0
2018-Jun-23 14:30N 41°20' E 002°09'0 0.0
2018-Jun-23 14:00N 41°20' E 002°09'0 0.0
2018-Jun-23 13:30N 41°20' E 002°09'0 0.0
2018-Jun-23 13:00N 41°20' E 002°09'0 0.0
2018-Jun-23 12:30N 41°20' E 002°09'0 0.0
2018-Jun-23 12:00N 41°20' E 002°09'0 0.0
2018-Jun-23 11:30N 41°20' E 002°09'0 0.0
2018-Jun-23 11:00N 41°20' E 002°09'0 0.0
2018-Jun-23 10:30N 41°20' E 002°09'0 0.0
2018-Jun-23 10:00N 41°20' E 002°09'0 0.0
2018-Jun-23 09:30N 41°20' E 002°09'0 0.0
2018-Jun-23 09:00N 41°20' E 002°09'0 0.0
2018-Jun-23 08:30N 41°20' E 002°09'0 0.0
2018-Jun-23 08:00N 41°20' E 002°09'0 0.0
2018-Jun-23 07:30N 41°20' E 002°09'0 0.0
2018-Jun-23 07:00N 41°20' E 002°09'0 0.0
2018-Jun-23 06:30N 41°20' E 002°09'0 0.0
2018-Jun-23 06:00N 41°20' E 002°09'0 0.0
2018-Jun-23 05:30N 41°20' E 002°09'0 0.0
2018-Jun-23 05:00N 41°20' E 002°09'0 0.0
2018-Jun-23 04:30N 41°20' E 002°09'0 0.0
2018-Jun-23 04:00N 41°20' E 002°09'0 0.0
2018-Jun-23 03:30N 41°20' E 002°09'0 0.0
2018-Jun-23 03:00N 41°20' E 002°09'0 0.0
2018-Jun-23 02:30N 41°20' E 002°09'0 0.0
2018-Jun-23 02:00N 41°20' E 002°09'0 0.0
2018-Jun-23 01:30N 41°20' E 002°09'0 0.0
2018-Jun-23 01:00N 41°20' E 002°09'0 0.0
2018-Jun-23 00:30N 41°20' E 002°09'0 0.0
2018-Jun-23 00:00N 41°20' E 002°09'0 0.0
2018-Jun-22 23:30N 41°20' E 002°09'0 0.0
2018-Jun-22 23:00N 41°20' E 002°09'0 0.0
2018-Jun-22 22:30N 41°20' E 002°09'0 0.0
2018-Jun-22 22:00N 41°20' E 002°09'0 0.0
2018-Jun-22 21:30N 41°20' E 002°09'0 0.0
2018-Jun-22 21:00N 41°20' E 002°09'1 1.9
2018-Jun-22 20:30N 41°20' E 002°10'3 7.1
2018-Jun-22 20:01N 41°17' E 002°11'3 6.5
2018-Jun-22 19:31N 41°14' E 002°09'2 3.9
2018-Jun-22 19:00N 41°12' E 002°08'612.8
2018-Jun-22 18:30N 41°06' E 002°04'817.1
2018-Jun-22 18:00N 40°58' E 001°60'917.1
2018-Jun-22 17:31N 40°51' E 001°54'7 4.6
2018-Jun-22 16:01N 40°51' E 001°45'117.1
2018-Jun-22 15:59N 40°51' E 001°45'816.3
2018-Jun-22 15:30N 40°45' E 001°38'917.7
2018-Jun-22 15:00N 40°38' E 001°32'917.7
2018-Jun-22 14:31N 40°30' E 001°25'917.2
2018-Jun-22 14:00N 40°23' E 001°19'10517.4
2018-Jun-22 07:59N 38°45' E 000°30'1017.6
2018-Jun-22 07:25N 38°37' E 000°23'717.3
2018-Jun-22 07:00N 38°31' E 000°18'917.1
2018-Jun-22 06:30N 38°24' E 000°11'917.4
2018-Jun-22 06:00N 38°18' E 000°05'917.3
2018-Jun-22 05:30N 38°10' W 000°01'817.2
2018-Jun-22 05:00N 38°02' W 000°05'917.3
2018-Jun-22 04:30N 37°55' W 000°12'917.3
2018-Jun-22 04:00N 37°48' W 000°18'917.4
2018-Jun-22 03:30N 37°40' W 000°24'917.5
2018-Jun-22 03:00N 37°33' W 000°30'917.6
2018-Jun-22 02:30N 37°27' W 000°38'817.2
2018-Jun-22 02:00N 37°22' W 000°46'917.3
2018-Jun-22 01:30N 37°16' W 000°55'917.6
2018-Jun-22 01:00N 37°10' W 001°03'917.8
2018-Jun-22 00:30N 37°05' W 001°11'1017.7
2018-Jun-21 23:56N 36°58' W 001°20'35218.3
2018-Jun-21 04:43N 36°15' W 008°36'520.5
2018-Jun-21 04:29N 36°16' W 008°42'919.4
2018-Jun-21 04:00N 36°18' W 008°53'1019.4
2018-Jun-21 03:29N 36°19' W 009°05'919.3
2018-Jun-21 03:00N 36°21' W 009°17'1019.3
2018-Jun-21 02:30N 36°23' W 009°29'1419.1
2018-Jun-21 01:46N 36°28' W 009°45'518.8
2018-Jun-21 01:29N 36°30' W 009°51'919.0
2018-Jun-21 01:00N 36°33' W 010°02'81319.0
2018-Jun-19 06:14N 40°23' W 026°37'920.0
2018-Jun-19 05:48N 40°25' W 026°49'920.0
2018-Jun-19 05:22N 40°26' W 026°60'3719.3
2018-Jun-19 03:26N 40°33' W 027°48'2519.1
2018-Jun-19 02:07N 40°38' W 028°21'1719.1
2018-Jun-19 01:13N 40°41' W 028°43'418.8
2018-Jun-19 00:58N 40°41' W 028°49'919.4
2018-Jun-19 00:30N 40°43' W 029°00'1018.9
2018-Jun-19 00:00N 40°44' W 029°13'1919.3
2018-Jun-18 22:59N 40°47' W 029°38'1019.5
2018-Jun-18 22:30N 40°49' W 029°51'13620.2
2018-Jun-18 15:47N 41°08' W 032°49'620.1
2018-Jun-18 15:30N 41°09' W 032°57'  
Track history (hours):
 
Tides and Currents Weather Stations Pressure Air Temp Water Temp Dewpoint Dewpoint Depression Visibility Wind Speed Wind Dir Waves Ship Positions

Orion Highway

Last reported at 2018-Jun-25 07:58 UTC. Time now 2018-Jun-25 08:21 UTC.
Position N 36°45' W 009°11'.

Length 199 m; draft 8.3 m.

Type: Cargo ship. MMSI: 374678000.

Date/timePositionNaut miles runAvg speedWind from/ knotsBaromVisibWave heightAir tempDewpointWater temp
2018-Jun-25 07:58N 36°45' W 009°11'918.9
2018-Jun-25 07:30N 36°42' W 009°01'1019.2
2018-Jun-25 07:00N 36°39' W 008°49'1019.5
2018-Jun-25 06:30N 36°36' W 008°38'1019.5
2018-Jun-25 05:59N 36°33' W 008°26'919.2
2018-Jun-25 05:30N 36°30' W 008°15'1119.3
2018-Jun-25 04:56N 36°26' W 008°02'919.2
2018-Jun-25 04:28N 36°24' W 007°51'919.2
2018-Jun-25 04:00N 36°21' W 007°41'32117.8
2018-Jun-24 09:56N 37°12' W 001°05'919.6
2018-Jun-24 09:29N 37°18' W 000°57'1020.1
2018-Jun-24 09:00N 37°24' W 000°48'1020.0
2018-Jun-24 08:30N 37°31' W 000°38'1019.6
2018-Jun-24 08:00N 37°39' W 000°30'1019.8
2018-Jun-24 07:30N 37°47' W 000°23'1020.0
2018-Jun-24 07:00N 37°55' W 000°16'1020.0
2018-Jun-24 06:30N 38°04' W 000°09'1019.8
2018-Jun-24 05:59N 38°12' W 000°02'1019.7
2018-Jun-24 05:30N 38°20' E 000°04'1219.9
2018-Jun-24 04:54N 38°30' E 000°12'1219.9
2018-Jun-24 04:16N 38°41' E 000°21'819.7
2018-Jun-24 03:52N 38°48' E 000°26'14519.5
2018-Jun-23 20:26N 40°56' E 001°56'819.7
2018-Jun-23 20:00N 41°03' E 002°01'1019.4
2018-Jun-23 19:30N 41°11' E 002°07'714.7
2018-Jun-23 19:00N 41°18' E 002°10'2 3.9
2018-Jun-23 18:31N 41°20' E 002°09'0 0.2
2018-Jun-23 18:00N 41°20' E 002°09'0 0.0
2018-Jun-23 17:24N 41°20' E 002°09'0 0.0
2018-Jun-23 17:00N 41°20' E 002°09'0 0.0
2018-Jun-23 16:30N 41°20' E 002°09'0 0.0
2018-Jun-23 16:00N 41°20' E 002°09'0 0.0
2018-Jun-23 15:30N 41°20' E 002°09'0 0.0
2018-Jun-23 15:00N 41°20' E 002°09'0 0.0
2018-Jun-23 14:30N 41°20' E 002°09'0 0.0
2018-Jun-23 14:00N 41°20' E 002°09'0 0.0
2018-Jun-23 13:30N 41°20' E 002°09'0 0.0
2018-Jun-23 13:00N 41°20' E 002°09'0 0.0
2018-Jun-23 12:30N 41°20' E 002°09'0 0.0
2018-Jun-23 12:00N 41°20' E 002°09'0 0.0
2018-Jun-23 11:30N 41°20' E 002°09'0 0.0
2018-Jun-23 11:00N 41°20' E 002°09'0 0.0
2018-Jun-23 10:30N 41°20' E 002°09'0 0.0
2018-Jun-23 10:00N 41°20' E 002°09'0 0.0
2018-Jun-23 09:30N 41°20' E 002°09'0 0.0
2018-Jun-23 09:00N 41°20' E 002°09'0 0.0
2018-Jun-23 08:30N 41°20' E 002°09'0 0.0
2018-Jun-23 08:00N 41°20' E 002°09'0 0.0
2018-Jun-23 07:30N 41°20' E 002°09'0 0.0
2018-Jun-23 07:00N 41°20' E 002°09'0 0.0
2018-Jun-23 06:30N 41°20' E 002°09'0 0.0
2018-Jun-23 06:00N 41°20' E 002°09'0 0.0
2018-Jun-23 05:30N 41°20' E 002°09'0 0.0
2018-Jun-23 05:00N 41°20' E 002°09'0 0.0
2018-Jun-23 04:30N 41°20' E 002°09'0 0.0
2018-Jun-23 04:00N 41°20' E 002°09'0 0.0
2018-Jun-23 03:30N 41°20' E 002°09'0 0.0
2018-Jun-23 03:00N 41°20' E 002°09'0 0.0
2018-Jun-23 02:30N 41°20' E 002°09'0 0.0
2018-Jun-23 02:00N 41°20' E 002°09'0 0.0
2018-Jun-23 01:30N 41°20' E 002°09'0 0.0
2018-Jun-23 01:00N 41°20' E 002°09'0 0.0
2018-Jun-23 00:30N 41°20' E 002°09'0 0.0
2018-Jun-23 00:00N 41°20' E 002°09'0 0.0
2018-Jun-22 23:30N 41°20' E 002°09'0 0.0
2018-Jun-22 23:00N 41°20' E 002°09'0 0.0
2018-Jun-22 22:30N 41°20' E 002°09'0 0.0
2018-Jun-22 22:00N 41°20' E 002°09'0 0.0
2018-Jun-22 21:30N 41°20' E 002°09'0 0.0
2018-Jun-22 21:00N 41°20' E 002°09'1 1.9
2018-Jun-22 20:30N 41°20' E 002°10'3 7.1
2018-Jun-22 20:01N 41°17' E 002°11'3 6.5
2018-Jun-22 19:31N 41°14' E 002°09'2 3.9
2018-Jun-22 19:00N 41°12' E 002°08'612.8
2018-Jun-22 18:30N 41°06' E 002°04'817.1
2018-Jun-22 18:00N 40°58' E 001°60'917.1
2018-Jun-22 17:31N 40°51' E 001°54'7 4.6
2018-Jun-22 16:01N 40°51' E 001°45'117.1
2018-Jun-22 15:59N 40°51' E 001°45'816.3
2018-Jun-22 15:30N 40°45' E 001°38'917.7
2018-Jun-22 15:00N 40°38' E 001°32'917.7
2018-Jun-22 14:31N 40°30' E 001°25'917.2
2018-Jun-22 14:00N 40°23' E 001°19'10517.4
2018-Jun-22 07:59N 38°45' E 000°30'1017.6
2018-Jun-22 07:25N 38°37' E 000°23'717.3
2018-Jun-22 07:00N 38°31' E 000°18'917.1
2018-Jun-22 06:30N 38°24' E 000°11'917.4
2018-Jun-22 06:00N 38°18' E 000°05'917.3
2018-Jun-22 05:30N 38°10' W 000°01'817.2
2018-Jun-22 05:00N 38°02' W 000°05'917.3
2018-Jun-22 04:30N 37°55' W 000°12'917.3
2018-Jun-22 04:00N 37°48' W 000°18'917.4
2018-Jun-22 03:30N 37°40' W 000°24'917.5
2018-Jun-22 03:00N 37°33' W 000°30'917.6
2018-Jun-22 02:30N 37°27' W 000°38'817.2
2018-Jun-22 02:00N 37°22' W 000°46'917.3
2018-Jun-22 01:30N 37°16' W 000°55'917.6
2018-Jun-22 01:00N 37°10' W 001°03'917.8
2018-Jun-22 00:30N 37°05' W 001°11'1017.7
2018-Jun-21 23:56N 36°58' W 001°20'35218.3
2018-Jun-21 04:43N 36°15' W 008°36'520.5
2018-Jun-21 04:29N 36°16' W 008°42'919.4
2018-Jun-21 04:00N 36°18' W 008°53'1019.4
2018-Jun-21 03:29N 36°19' W 009°05'919.3
2018-Jun-21 03:00N 36°21' W 009°17'1019.3
2018-Jun-21 02:30N 36°23' W 009°29'1419.1
2018-Jun-21 01:46N 36°28' W 009°45'518.8
2018-Jun-21 01:29N 36°30' W 009°51'919.0
2018-Jun-21 01:00N 36°33' W 010°02'81319.0
2018-Jun-19 06:14N 40°23' W 026°37'920.0
2018-Jun-19 05:48N 40°25' W 026°49'920.0
2018-Jun-19 05:22N 40°26' W 026°60'3719.3
2018-Jun-19 03:26N 40°33' W 027°48'2519.1
2018-Jun-19 02:07N 40°38' W 028°21'1719.1
2018-Jun-19 01:13N 40°41' W 028°43'418.8
2018-Jun-19 00:58N 40°41' W 028°49'919.4
2018-Jun-19 00:30N 40°43' W 029°00'1018.9
2018-Jun-19 00:00N 40°44' W 029°13'1919.3
2018-Jun-18 22:59N 40°47' W 029°38'1019.5
2018-Jun-18 22:30N 40°49' W 029°51'13620.2
2018-Jun-18 15:47N 41°08' W 032°49'620.1
2018-Jun-18 15:30N 41°09' W 032°57'  

Dump ship's entire track history